METAR Data
IDs: Format: Raw Decoded Include TAF

Data at: 0825 UTC 03 Aug 2021

LFSO 030800Z AUTO 22010KT 9999 BKN013/// BKN019/// OVC084/// ///CB 17/14 Q1014